sensor_id;sensor_type;location;lat;lon;timestamp;temperature;humidity
30520;DHT22;17300;50.374;8.006;2022-09-01T00:00:10;18.30;51.10
30520;DHT22;17300;50.374;8.006;2022-09-01T00:02:39;18.30;51.60
30520;DHT22;17300;50.374;8.006;2022-09-01T00:05:08;18.30;51.30
30520;DHT22;17300;50.374;8.006;2022-09-01T00:07:34;18.20;51.30
30520;DHT22;17300;50.374;8.006;2022-09-01T00:10:05;18.20;51.30
30520;DHT22;17300;50.374;8.006;2022-09-01T00:12:34;18.20;51.60
30520;DHT22;17300;50.374;8.006;2022-09-01T00:15:03;18.10;51.60
30520;DHT22;17300;50.374;8.006;2022-09-01T00:17:30;18.10;51.60
30520;DHT22;17300;50.374;8.006;2022-09-01T00:19:59;18.10;51.60
30520;DHT22;17300;50.374;8.006;2022-09-01T00:22:25;18.10;51.60
30520;DHT22;17300;50.374;8.006;2022-09-01T00:24:53;18.00;51.50
30520;DHT22;17300;50.374;8.006;2022-09-01T00:27:21;18.00;51.60
30520;DHT22;17300;50.374;8.006;2022-09-01T00:29:49;18.00;51.70
30520;DHT22;17300;50.374;8.006;2022-09-01T00:32:16;17.90;51.80
30520;DHT22;17300;50.374;8.006;2022-09-01T00:34:42;17.90;51.80
30520;DHT22;17300;50.374;8.006;2022-09-01T00:37:09;17.90;51.90
30520;DHT22;17300;50.374;8.006;2022-09-01T00:39:36;17.90;51.90
30520;DHT22;17300;50.374;8.006;2022-09-01T00:42:03;17.90;52.00
30520;DHT22;17300;50.374;8.006;2022-09-01T00:44:31;17.90;52.10
30520;DHT22;17300;50.374;8.006;2022-09-01T00:47:00;17.80;52.00
30520;DHT22;17300;50.374;8.006;2022-09-01T00:49:29;17.80;52.10
30520;DHT22;17300;50.374;8.006;2022-09-01T00:52:00;17.80;52.20
30520;DHT22;17300;50.374;8.006;2022-09-01T00:54:30;17.80;52.20
30520;DHT22;17300;50.374;8.006;2022-09-01T00:56:58;17.80;52.20
30520;DHT22;17300;50.374;8.006;2022-09-01T00:59:26;17.70;52.10
30520;DHT22;17300;50.374;8.006;2022-09-01T01:01:53;17.70;52.10
30520;DHT22;17300;50.374;8.006;2022-09-01T01:04:21;17.70;52.10
30520;DHT22;17300;50.374;8.006;2022-09-01T01:06:51;17.60;52.20
30520;DHT22;17300;50.374;8.006;2022-09-01T01:09:25;17.60;52.20
30520;DHT22;17300;50.374;8.006;2022-09-01T01:11:52;17.60;52.20
30520;DHT22;17300;50.374;8.006;2022-09-01T01:14:22;17.60;52.30
30520;DHT22;17300;50.374;8.006;2022-09-01T01:16:49;17.50;52.30
30520;DHT22;17300;50.374;8.006;2022-09-01T01:19:22;17.50;52.40
30520;DHT22;17300;50.374;8.006;2022-09-01T01:22:15;17.50;52.70
30520;DHT22;17300;50.374;8.006;2022-09-01T01:25:03;17.50;52.80
30520;DHT22;17300;50.374;8.006;2022-09-01T01:27:32;17.40;52.40
30520;DHT22;17300;50.374;8.006;2022-09-01T01:30:00;17.40;52.40
30520;DHT22;17300;50.374;8.006;2022-09-01T01:32:27;17.40;52.50
30520;DHT22;17300;50.374;8.006;2022-09-01T01:34:54;17.40;52.50
30520;DHT22;17300;50.374;8.006;2022-09-01T01:37:21;17.40;52.60
30520;DHT22;17300;50.374;8.006;2022-09-01T01:39:48;17.30;52.60
30520;DHT22;17300;50.374;8.006;2022-09-01T01:42:16;17.30;52.60
30520;DHT22;17300;50.374;8.006;2022-09-01T01:44:43;17.30;52.70
30520;DHT22;17300;50.374;8.006;2022-09-01T01:47:13;17.30;52.80
30520;DHT22;17300;50.374;8.006;2022-09-01T01:49:44;17.30;52.90
30520;DHT22;17300;50.374;8.006;2022-09-01T01:52:12;17.20;52.80
30520;DHT22;17300;50.374;8.006;2022-09-01T01:54:43;17.20;52.90
30520;DHT22;17300;50.374;8.006;2022-09-01T01:57:10;17.20;52.90
30520;DHT22;17300;50.374;8.006;2022-09-01T01:59:43;17.20;53.00
30520;DHT22;17300;50.374;8.006;2022-09-01T02:02:09;17.20;53.10
30520;DHT22;17300;50.374;8.006;2022-09-01T02:04:37;17.20;53.00
30520;DHT22;17300;50.374;8.006;2022-09-01T02:07:08;17.10;53.10
30520;DHT22;17300;50.374;8.006;2022-09-01T02:09:37;17.10;53.30
30520;DHT22;17300;50.374;8.006;2022-09-01T02:12:06;17.10;53.20
30520;DHT22;17300;50.374;8.006;2022-09-01T02:14:32;17.10;53.30
30520;DHT22;17300;50.374;8.006;2022-09-01T02:17:01;17.10;53.30
30520;DHT22;17300;50.374;8.006;2022-09-01T02:19:31;17.00;53.40
30520;DHT22;17300;50.374;8.006;2022-09-01T02:22:07;17.00;53.40
30520;DHT22;17300;50.374;8.006;2022-09-01T02:24:35;17.00;53.40
30520;DHT22;17300;50.374;8.006;2022-09-01T02:27:02;17.00;53.50
30520;DHT22;17300;50.374;8.006;2022-09-01T02:29:30;17.00;53.60
30520;DHT22;17300;50.374;8.006;2022-09-01T02:31:57;16.90;53.60
30520;DHT22;17300;50.374;8.006;2022-09-01T02:34:26;16.90;53.70
30520;DHT22;17300;50.374;8.006;2022-09-01T02:36:55;16.90;53.70
30520;DHT22;17300;50.374;8.006;2022-09-01T02:39:25;16.90;53.70
30520;DHT22;17300;50.374;8.006;2022-09-01T02:41:53;16.90;53.70
30520;DHT22;17300;50.374;8.006;2022-09-01T02:44:20;16.90;53.70
30520;DHT22;17300;50.374;8.006;2022-09-01T02:46:48;16.80;53.70
30520;DHT22;17300;50.374;8.006;2022-09-01T02:49:18;16.80;53.70
30520;DHT22;17300;50.374;8.006;2022-09-01T02:51:51;16.80;53.80
30520;DHT22;17300;50.374;8.006;2022-09-01T02:54:19;16.80;53.90
30520;DHT22;17300;50.374;8.006;2022-09-01T02:56:47;16.70;53.80
30520;DHT22;17300;50.374;8.006;2022-09-01T02:59:16;16.70;53.80
30520;DHT22;17300;50.374;8.006;2022-09-01T03:01:47;16.70;53.90
30520;DHT22;17300;50.374;8.006;2022-09-01T03:04:14;16.70;53.90
30520;DHT22;17300;50.374;8.006;2022-09-01T03:06:42;16.60;53.80
30520;DHT22;17300;50.374;8.006;2022-09-01T03:09:12;16.70;54.60
30520;DHT22;17300;50.374;8.006;2022-09-01T03:11:41;16.60;54.10
30520;DHT22;17300;50.374;8.006;2022-09-01T03:14:09;16.60;54.00
30520;DHT22;17300;50.374;8.006;2022-09-01T03:16:36;16.60;54.10
30520;DHT22;17300;50.374;8.006;2022-09-01T03:19:04;16.60;54.10
30520;DHT22;17300;50.374;8.006;2022-09-01T03:21:33;16.60;54.10
30520;DHT22;17300;50.374;8.006;2022-09-01T03:24:01;16.50;54.10
30520;DHT22;17300;50.374;8.006;2022-09-01T03:26:30;16.50;54.20
30520;DHT22;17300;50.374;8.006;2022-09-01T03:28:57;16.50;54.30
30520;DHT22;17300;50.374;8.006;2022-09-01T03:31:25;16.50;54.30
30520;DHT22;17300;50.374;8.006;2022-09-01T03:33:53;16.50;54.30
30520;DHT22;17300;50.374;8.006;2022-09-01T03:36:22;16.50;54.40
30520;DHT22;17300;50.374;8.006;2022-09-01T03:38:50;16.40;54.30
30520;DHT22;17300;50.374;8.006;2022-09-01T03:41:20;16.40;54.30
30520;DHT22;17300;50.374;8.006;2022-09-01T03:43:48;16.40;54.40
30520;DHT22;17300;50.374;8.006;2022-09-01T03:46:16;16.30;54.40
30520;DHT22;17300;50.374;8.006;2022-09-01T03:48:46;16.40;54.50
30520;DHT22;17300;50.374;8.006;2022-09-01T03:51:15;16.30;54.40
30520;DHT22;17300;50.374;8.006;2022-09-01T03:53:42;16.30;54.40
30520;DHT22;17300;50.374;8.006;2022-09-01T03:56:10;16.30;54.50
30520;DHT22;17300;50.374;8.006;2022-09-01T03:58:39;16.30;54.50
30520;DHT22;17300;50.374;8.006;2022-09-01T04:01:09;16.30;54.60
30520;DHT22;17300;50.374;8.006;2022-09-01T04:03:37;16.20;54.50
30520;DHT22;17300;50.374;8.006;2022-09-01T04:06:07;16.20;54.60
30520;DHT22;17300;50.374;8.006;2022-09-01T04:08:35;16.20;54.70
30520;DHT22;17300;50.374;8.006;2022-09-01T04:11:11;16.20;54.70
30520;DHT22;17300;50.374;8.006;2022-09-01T04:13:41;16.20;54.80
30520;DHT22;17300;50.374;8.006;2022-09-01T04:16:18;16.20;54.80
30520;DHT22;17300;50.374;8.006;2022-09-01T04:18:59;16.20;55.40
30520;DHT22;17300;50.374;8.006;2022-09-01T04:21:28;16.20;54.80
30520;DHT22;17300;50.374;8.006;2022-09-01T04:23:56;16.20;55.00
30520;DHT22;17300;50.374;8.006;2022-09-01T04:26:29;16.20;55.10
30520;DHT22;17300;50.374;8.006;2022-09-01T04:28:56;16.20;55.20
30520;DHT22;17300;50.374;8.006;2022-09-01T04:31:24;16.20;55.30
30520;DHT22;17300;50.374;8.006;2022-09-01T04:33:51;16.30;55.40
30520;DHT22;17300;50.374;8.006;2022-09-01T04:36:22;16.30;55.30
30520;DHT22;17300;50.374;8.006;2022-09-01T04:38:51;16.10;58.30
30520;DHT22;17300;50.374;8.006;2022-09-01T04:41:19;16.20;57.30
30520;DHT22;17300;50.374;8.006;2022-09-01T04:43:47;16.30;56.80
30520;DHT22;17300;50.374;8.006;2022-09-01T04:46:17;16.40;56.60
30520;DHT22;17300;50.374;8.006;2022-09-01T04:48:45;16.40;56.30
30520;DHT22;17300;50.374;8.006;2022-09-01T04:51:13;16.50;56.30
30520;DHT22;17300;50.374;8.006;2022-09-01T04:53:41;16.60;56.10
30520;DHT22;17300;50.374;8.006;2022-09-01T04:56:13;16.60;55.90
30520;DHT22;17300;50.374;8.006;2022-09-01T04:58:44;16.60;55.80
30520;DHT22;17300;50.374;8.006;2022-09-01T05:01:16;16.60;55.80
30520;DHT22;17300;50.374;8.006;2022-09-01T05:03:44;16.60;55.90
30520;DHT22;17300;50.374;8.006;2022-09-01T05:06:13;16.60;55.70
30520;DHT22;17300;50.374;8.006;2022-09-01T05:08:40;16.70;55.90
30520;DHT22;17300;50.374;8.006;2022-09-01T05:11:09;16.70;55.80
30520;DHT22;17300;50.374;8.006;2022-09-01T05:13:36;16.60;55.80
30520;DHT22;17300;50.374;8.006;2022-09-01T05:16:06;16.70;55.90
30520;DHT22;17300;50.374;8.006;2022-09-01T05:18:38;16.70;55.90
30520;DHT22;17300;50.374;8.006;2022-09-01T05:21:07;16.80;55.90
30520;DHT22;17300;50.374;8.006;2022-09-01T05:23:34;16.80;56.00
30520;DHT22;17300;50.374;8.006;2022-09-01T05:26:02;16.80;55.90
30520;DHT22;17300;50.374;8.006;2022-09-01T05:28:31;16.90;56.00
30520;DHT22;17300;50.374;8.006;2022-09-01T05:30:59;17.00;56.10
30520;DHT22;17300;50.374;8.006;2022-09-01T05:33:26;17.00;56.10
30520;DHT22;17300;50.374;8.006;2022-09-01T05:35:55;17.10;56.20
30520;DHT22;17300;50.374;8.006;2022-09-01T05:38:23;17.10;56.20
30520;DHT22;17300;50.374;8.006;2022-09-01T05:40:54;17.20;56.30
30520;DHT22;17300;50.374;8.006;2022-09-01T05:43:22;17.30;56.30
30520;DHT22;17300;50.374;8.006;2022-09-01T05:45:52;17.30;56.10
30520;DHT22;17300;50.374;8.006;2022-09-01T05:48:20;17.40;56.20
30520;DHT22;17300;50.374;8.006;2022-09-01T05:50:48;17.50;56.30
30520;DHT22;17300;50.374;8.006;2022-09-01T05:53:16;17.50;56.40
30520;DHT22;17300;50.374;8.006;2022-09-01T05:55:45;17.60;56.50
30520;DHT22;17300;50.374;8.006;2022-09-01T05:58:14;17.60;56.70
30520;DHT22;17300;50.374;8.006;2022-09-01T06:00:43;17.80;56.70
30520;DHT22;17300;50.374;8.006;2022-09-01T06:03:12;17.90;56.70
30520;DHT22;17300;50.374;8.006;2022-09-01T06:05:40;18.00;56.70
30520;DHT22;17300;50.374;8.006;2022-09-01T06:08:08;18.10;56.50
30520;DHT22;17300;50.374;8.006;2022-09-01T06:10:39;18.30;56.80
30520;DHT22;17300;50.374;8.006;2022-09-01T06:13:08;18.50;58.10
30520;DHT22;17300;50.374;8.006;2022-09-01T06:15:37;19.00;59.80
30520;DHT22;17300;50.374;8.006;2022-09-01T06:18:04;19.60;61.60
30520;DHT22;17300;50.374;8.006;2022-09-01T06:20:31;20.30;62.70
30520;DHT22;17300;50.374;8.006;2022-09-01T06:22:58;21.10;62.80
30520;DHT22;17300;50.374;8.006;2022-09-01T06:25:26;22.00;62.30
30520;DHT22;17300;50.374;8.006;2022-09-01T06:27:55;22.90;60.80
30520;DHT22;17300;50.374;8.006;2022-09-01T06:30:23;23.70;59.90
30520;DHT22;17300;50.374;8.006;2022-09-01T06:32:51;24.50;59.20
30520;DHT22;17300;50.374;8.006;2022-09-01T06:35:20;25.40;58.40
30520;DHT22;17300;50.374;8.006;2022-09-01T06:37:49;26.20;56.90
30520;DHT22;17300;50.374;8.006;2022-09-01T06:40:17;26.90;56.00
30520;DHT22;17300;50.374;8.006;2022-09-01T06:42:44;27.60;54.70
30520;DHT22;17300;50.374;8.006;2022-09-01T06:45:12;28.20;53.20
30520;DHT22;17300;50.374;8.006;2022-09-01T06:47:40;28.70;51.60
30520;DHT22;17300;50.374;8.006;2022-09-01T06:50:10;29.20;49.80
30520;DHT22;17300;50.374;8.006;2022-09-01T06:52:39;29.50;49.10
30520;DHT22;17300;50.374;8.006;2022-09-01T06:55:08;29.70;48.10
30520;DHT22;17300;50.374;8.006;2022-09-01T06:57:35;30.00;48.10
30520;DHT22;17300;50.374;8.006;2022-09-01T07:00:04;30.50;48.10
30520;DHT22;17300;50.374;8.006;2022-09-01T07:02:41;30.80;46.60
30520;DHT22;17300;50.374;8.006;2022-09-01T07:05:09;31.10;46.00
30520;DHT22;17300;50.374;8.006;2022-09-01T07:07:35;31.20;45.20
30520;DHT22;17300;50.374;8.006;2022-09-01T07:10:04;31.40;44.60
30520;DHT22;17300;50.374;8.006;2022-09-01T07:12:31;31.50;43.40
30520;DHT22;17300;50.374;8.006;2022-09-01T07:14:58;31.60;42.50
30520;DHT22;17300;50.374;8.006;2022-09-01T07:17:25;31.40;41.10
30520;DHT22;17300;50.374;8.006;2022-09-01T07:19:56;31.20;40.40
30520;DHT22;17300;50.374;8.006;2022-09-01T07:22:23;30.80;39.60
30520;DHT22;17300;50.374;8.006;2022-09-01T07:24:50;30.50;39.50
30520;DHT22;17300;50.374;8.006;2022-09-01T07:27:21;30.10;39.40
30520;DHT22;17300;50.374;8.006;2022-09-01T07:29:53;29.70;39.40
30520;DHT22;17300;50.374;8.006;2022-09-01T07:32:20;29.30;39.50
30520;DHT22;17300;50.374;8.006;2022-09-01T07:34:47;29.00;40.00
30520;DHT22;17300;50.374;8.006;2022-09-01T07:37:15;28.70;40.30
30520;DHT22;17300;50.374;8.006;2022-09-01T07:39:47;28.50;40.50
30520;DHT22;17300;50.374;8.006;2022-09-01T07:42:16;28.40;40.80
30520;DHT22;17300;50.374;8.006;2022-09-01T07:44:42;28.30;40.70
30520;DHT22;17300;50.374;8.006;2022-09-01T07:47:10;28.20;40.60
30520;DHT22;17300;50.374;8.006;2022-09-01T07:49:39;28.10;40.50
30520;DHT22;17300;50.374;8.006;2022-09-01T07:52:06;28.00;40.60
30520;DHT22;17300;50.374;8.006;2022-09-01T07:54:34;27.90;40.40
30520;DHT22;17300;50.374;8.006;2022-09-01T07:57:02;27.80;40.20
30520;DHT22;17300;50.374;8.006;2022-09-01T07:59:29;27.70;40.30
30520;DHT22;17300;50.374;8.006;2022-09-01T08:01:57;27.60;40.40
30520;DHT22;17300;50.374;8.006;2022-09-01T08:04:25;27.50;40.10
30520;DHT22;17300;50.374;8.006;2022-09-01T08:06:52;27.40;40.10
30520;DHT22;17300;50.374;8.006;2022-09-01T08:09:20;27.20;40.00
30520;DHT22;17300;50.374;8.006;2022-09-01T08:11:48;27.00;39.70
30520;DHT22;17300;50.374;8.006;2022-09-01T08:14:15;26.80;39.70
30520;DHT22;17300;50.374;8.006;2022-09-01T08:16:42;26.60;39.90
30520;DHT22;17300;50.374;8.006;2022-09-01T08:19:08;26.40;40.00
30520;DHT22;17300;50.374;8.006;2022-09-01T08:21:35;26.30;40.20
30520;DHT22;17300;50.374;8.006;2022-09-01T08:24:04;26.10;40.40
30520;DHT22;17300;50.374;8.006;2022-09-01T08:26:31;26.00;40.50
30520;DHT22;17300;50.374;8.006;2022-09-01T08:28:59;25.90;40.50
30520;DHT22;17300;50.374;8.006;2022-09-01T08:31:26;25.80;40.60
30520;DHT22;17300;50.374;8.006;2022-09-01T08:33:53;25.80;41.30
30520;DHT22;17300;50.374;8.006;2022-09-01T08:36:20;25.90;41.70
30520;DHT22;17300;50.374;8.006;2022-09-01T08:38:47;26.00;42.20
30520;DHT22;17300;50.374;8.006;2022-09-01T08:41:17;26.20;42.20
30520;DHT22;17300;50.374;8.006;2022-09-01T08:43:55;26.50;42.50
30520;DHT22;17300;50.374;8.006;2022-09-01T08:46:27;26.90;42.50
30520;DHT22;17300;50.374;8.006;2022-09-01T08:48:57;27.40;43.10
30520;DHT22;17300;50.374;8.006;2022-09-01T08:51:30;28.10;44.00
30520;DHT22;17300;50.374;8.006;2022-09-01T08:54:02;29.00;44.40
30520;DHT22;17300;50.374;8.006;2022-09-01T08:56:33;30.20;45.20
30520;DHT22;17300;50.374;8.006;2022-09-01T08:59:03;31.50;45.10
30520;DHT22;17300;50.374;8.006;2022-09-01T09:01:42;32.90;43.80
30520;DHT22;17300;50.374;8.006;2022-09-01T09:04:20;34.40;41.20
30520;DHT22;17300;50.374;8.006;2022-09-01T09:06:54;35.70;39.20
30520;DHT22;17300;50.374;8.006;2022-09-01T09:09:29;36.90;37.80
30520;DHT22;17300;50.374;8.006;2022-09-01T09:12:19;38.10;36.50
30520;DHT22;17300;50.374;8.006;2022-09-01T09:15:06;39.30;34.60
30520;DHT22;17300;50.374;8.006;2022-09-01T09:17:39;40.30;32.60
30520;DHT22;17300;50.374;8.006;2022-09-01T09:20:07;41.10;31.20
30520;DHT22;17300;50.374;8.006;2022-09-01T09:22:35;41.80;31.00
30520;DHT22;17300;50.374;8.006;2022-09-01T09:25:06;42.40;30.00
30520;DHT22;17300;50.374;8.006;2022-09-01T09:27:36;43.00;29.00
30520;DHT22;17300;50.374;8.006;2022-09-01T09:30:06;43.40;28.00
30520;DHT22;17300;50.374;8.006;2022-09-01T09:32:49;43.50;26.80
30520;DHT22;17300;50.374;8.006;2022-09-01T09:35:23;43.30;26.30
30520;DHT22;17300;50.374;8.006;2022-09-01T09:37:51;43.10;25.80
30520;DHT22;17300;50.374;8.006;2022-09-01T09:40:20;42.80;26.00
30520;DHT22;17300;50.374;8.006;2022-09-01T09:43:08;42.70;26.00
30520;DHT22;17300;50.374;8.006;2022-09-01T09:45:40;42.60;26.40
30520;DHT22;17300;50.374;8.006;2022-09-01T09:48:25;42.60;25.80
30520;DHT22;17300;50.374;8.006;2022-09-01T09:50:53;42.60;25.90
30520;DHT22;17300;50.374;8.006;2022-09-01T09:53:26;42.80;26.50
30520;DHT22;17300;50.374;8.006;2022-09-01T09:55:56;43.20;26.30
30520;DHT22;17300;50.374;8.006;2022-09-01T09:58:27;43.60;26.40
30520;DHT22;17300;50.374;8.006;2022-09-01T10:01:03;43.90;26.00
30520;DHT22;17300;50.374;8.006;2022-09-01T10:03:38;44.30;25.20
30520;DHT22;17300;50.374;8.006;2022-09-01T10:06:13;44.50;24.80
30520;DHT22;17300;50.374;8.006;2022-09-01T10:08:43;44.50;24.20
30520;DHT22;17300;50.374;8.006;2022-09-01T10:11:24;44.40;23.60
30520;DHT22;17300;50.374;8.006;2022-09-01T10:13:52;44.10;23.80
30520;DHT22;17300;50.374;8.006;2022-09-01T10:16:24;43.80;24.10
30520;DHT22;17300;50.374;8.006;2022-09-01T10:18:54;43.70;24.50
30520;DHT22;17300;50.374;8.006;2022-09-01T10:21:27;43.70;24.20
30520;DHT22;17300;50.374;8.006;2022-09-01T10:23:57;43.80;24.50
30520;DHT22;17300;50.374;8.006;2022-09-01T10:26:29;44.10;24.70
30520;DHT22;17300;50.374;8.006;2022-09-01T10:29:00;44.40;23.90
30520;DHT22;17300;50.374;8.006;2022-09-01T10:31:33;44.60;23.70
30520;DHT22;17300;50.374;8.006;2022-09-01T10:34:03;44.90;23.80
30520;DHT22;17300;50.374;8.006;2022-09-01T10:36:31;45.20;23.60
30520;DHT22;17300;50.374;8.006;2022-09-01T10:38:58;45.40;23.50
30520;DHT22;17300;50.374;8.006;2022-09-01T10:41:50;45.70;23.40
30520;DHT22;17300;50.374;8.006;2022-09-01T10:44:21;45.80;23.60
30520;DHT22;17300;50.374;8.006;2022-09-01T10:46:49;45.90;22.80
30520;DHT22;17300;50.374;8.006;2022-09-01T10:53:01;46.00;22.70
30520;DHT22;17300;50.374;8.006;2022-09-01T10:55:31;45.90;22.60
30520;DHT22;17300;50.374;8.006;2022-09-01T11:01:01;45.60;22.40
30520;DHT22;17300;50.374;8.006;2022-09-01T11:03:58;45.50;21.80
30520;DHT22;17300;50.374;8.006;2022-09-01T11:09:21;45.30;22.20
30520;DHT22;17300;50.374;8.006;2022-09-01T11:14:47;45.30;21.80
30520;DHT22;17300;50.374;8.006;2022-09-01T11:17:17;45.00;21.80
30520;DHT22;17300;50.374;8.006;2022-09-01T11:19:46;44.90;21.60
30520;DHT22;17300;50.374;8.006;2022-09-01T11:22:30;44.60;21.60
30520;DHT22;17300;50.374;8.006;2022-09-01T11:31:28;43.50;21.80
30520;DHT22;17300;50.374;8.006;2022-09-01T11:34:13;42.90;21.20
30520;DHT22;17300;50.374;8.006;2022-09-01T11:36:52;42.40;21.50
30520;DHT22;17300;50.374;8.006;2022-09-01T11:39:31;41.90;21.30
30520;DHT22;17300;50.374;8.006;2022-09-01T11:42:04;41.30;21.20
30520;DHT22;17300;50.374;8.006;2022-09-01T11:44:38;40.70;21.10
30520;DHT22;17300;50.374;8.006;2022-09-01T11:47:07;39.90;21.10
30520;DHT22;17300;50.374;8.006;2022-09-01T11:49:39;39.10;21.20
30520;DHT22;17300;50.374;8.006;2022-09-01T11:52:13;38.30;21.50
30520;DHT22;17300;50.374;8.006;2022-09-01T11:54:42;37.50;22.20
30520;DHT22;17300;50.374;8.006;2022-09-01T11:57:33;36.80;22.60
30520;DHT22;17300;50.374;8.006;2022-09-01T12:00:03;36.20;23.30
30520;DHT22;17300;50.374;8.006;2022-09-01T12:02:32;35.70;23.50
30520;DHT22;17300;50.374;8.006;2022-09-01T12:05:00;35.30;23.80
30520;DHT22;17300;50.374;8.006;2022-09-01T12:07:39;35.00;23.70
30520;DHT22;17300;50.374;8.006;2022-09-01T12:10:14;34.60;24.10
30520;DHT22;17300;50.374;8.006;2022-09-01T12:12:44;34.40;24.30
30520;DHT22;17300;50.374;8.006;2022-09-01T12:15:23;34.10;24.40
30520;DHT22;17300;50.374;8.006;2022-09-01T12:17:51;33.90;24.70
30520;DHT22;17300;50.374;8.006;2022-09-01T12:20:23;33.60;24.90
30520;DHT22;17300;50.374;8.006;2022-09-01T12:22:51;33.40;24.80
30520;DHT22;17300;50.374;8.006;2022-09-01T12:25:20;33.20;24.90
30520;DHT22;17300;50.374;8.006;2022-09-01T12:27:49;33.10;25.10
30520;DHT22;17300;50.374;8.006;2022-09-01T12:30:17;32.90;25.20
30520;DHT22;17300;50.374;8.006;2022-09-01T12:32:45;32.90;25.20
30520;DHT22;17300;50.374;8.006;2022-09-01T12:35:15;32.80;25.40
30520;DHT22;17300;50.374;8.006;2022-09-01T12:37:43;32.90;25.40
30520;DHT22;17300;50.374;8.006;2022-09-01T12:40:24;32.90;25.60
30520;DHT22;17300;50.374;8.006;2022-09-01T12:42:53;32.80;25.30
30520;DHT22;17300;50.374;8.006;2022-09-01T12:45:40;32.70;25.10
30520;DHT22;17300;50.374;8.006;2022-09-01T12:48:23;32.70;25.40
30520;DHT22;17300;50.374;8.006;2022-09-01T12:50:51;32.50;25.40
30520;DHT22;17300;50.374;8.006;2022-09-01T12:53:27;32.50;25.40
30520;DHT22;17300;50.374;8.006;2022-09-01T12:56:09;32.30;25.20
30520;DHT22;17300;50.374;8.006;2022-09-01T12:58:46;32.20;25.30
30520;DHT22;17300;50.374;8.006;2022-09-01T13:01:25;32.10;25.50
30520;DHT22;17300;50.374;8.006;2022-09-01T13:04:06;32.00;25.70
30520;DHT22;17300;50.374;8.006;2022-09-01T13:06:35;31.90;25.60
30520;DHT22;17300;50.374;8.006;2022-09-01T13:09:02;31.80;25.60
30520;DHT22;17300;50.374;8.006;2022-09-01T13:11:29;31.70;25.50
30520;DHT22;17300;50.374;8.006;2022-09-01T13:13:58;31.50;25.70
30520;DHT22;17300;50.374;8.006;2022-09-01T13:16:26;31.40;25.80
30520;DHT22;17300;50.374;8.006;2022-09-01T13:18:52;31.40;25.70
30520;DHT22;17300;50.374;8.006;2022-09-01T13:21:19;31.30;25.80
30520;DHT22;17300;50.374;8.006;2022-09-01T13:23:46;31.30;25.80
30520;DHT22;17300;50.374;8.006;2022-09-01T13:26:13;31.30;26.00
30520;DHT22;17300;50.374;8.006;2022-09-01T13:28:40;31.30;26.20
30520;DHT22;17300;50.374;8.006;2022-09-01T13:31:08;31.30;26.20
30520;DHT22;17300;50.374;8.006;2022-09-01T13:33:35;31.20;26.10
30520;DHT22;17300;50.374;8.006;2022-09-01T13:36:03;31.20;26.10
30520;DHT22;17300;50.374;8.006;2022-09-01T13:38:30;31.10;26.10
30520;DHT22;17300;50.374;8.006;2022-09-01T13:40:59;31.00;26.20
30520;DHT22;17300;50.374;8.006;2022-09-01T13:43:29;30.90;26.30
30520;DHT22;17300;50.374;8.006;2022-09-01T13:45:56;30.80;26.50
30520;DHT22;17300;50.374;8.006;2022-09-01T13:48:25;30.90;26.50
30520;DHT22;17300;50.374;8.006;2022-09-01T13:50:52;30.80;26.60
30520;DHT22;17300;50.374;8.006;2022-09-01T13:53:20;30.90;26.70
30520;DHT22;17300;50.374;8.006;2022-09-01T13:55:49;30.90;26.60
30520;DHT22;17300;50.374;8.006;2022-09-01T13:58:15;30.90;26.40
30520;DHT22;17300;50.374;8.006;2022-09-01T14:00:44;31.00;26.30
30520;DHT22;17300;50.374;8.006;2022-09-01T14:03:14;31.00;26.30
30520;DHT22;17300;50.374;8.006;2022-09-01T14:05:48;31.10;26.60
30520;DHT22;17300;50.374;8.006;2022-09-01T14:08:16;31.10;26.70
30520;DHT22;17300;50.374;8.006;2022-09-01T14:10:51;31.20;26.80
30520;DHT22;17300;50.374;8.006;2022-09-01T14:13:20;31.20;26.80
30520;DHT22;17300;50.374;8.006;2022-09-01T14:15:47;31.30;26.90
30520;DHT22;17300;50.374;8.006;2022-09-01T14:18:15;31.40;27.10
30520;DHT22;17300;50.374;8.006;2022-09-01T14:20:50;31.40;27.00
30520;DHT22;17300;50.374;8.006;2022-09-01T14:23:18;31.50;27.20
30520;DHT22;17300;50.374;8.006;2022-09-01T14:25:47;31.60;27.00
30520;DHT22;17300;50.374;8.006;2022-09-01T14:28:15;31.50;26.60
30520;DHT22;17300;50.374;8.006;2022-09-01T14:30:42;31.50;26.50
30520;DHT22;17300;50.374;8.006;2022-09-01T14:33:09;31.50;26.40
30520;DHT22;17300;50.374;8.006;2022-09-01T14:35:37;31.40;26.30
30520;DHT22;17300;50.374;8.006;2022-09-01T14:38:06;31.20;26.30
30520;DHT22;17300;50.374;8.006;2022-09-01T14:40:33;31.10;26.30
30520;DHT22;17300;50.374;8.006;2022-09-01T14:43:02;31.00;26.30
30520;DHT22;17300;50.374;8.006;2022-09-01T14:45:30;30.90;26.60
30520;DHT22;17300;50.374;8.006;2022-09-01T14:47:58;30.70;26.60
30520;DHT22;17300;50.374;8.006;2022-09-01T14:50:27;30.60;27.00
30520;DHT22;17300;50.374;8.006;2022-09-01T14:52:58;30.60;27.50
30520;DHT22;17300;50.374;8.006;2022-09-01T14:55:28;30.60;27.60
30520;DHT22;17300;50.374;8.006;2022-09-01T14:57:56;30.60;27.60
30520;DHT22;17300;50.374;8.006;2022-09-01T15:00:24;30.70;27.50
30520;DHT22;17300;50.374;8.006;2022-09-01T15:02:53;30.80;27.50
30520;DHT22;17300;50.374;8.006;2022-09-01T15:05:21;30.80;27.30
30520;DHT22;17300;50.374;8.006;2022-09-01T15:07:48;30.90;27.20
30520;DHT22;17300;50.374;8.006;2022-09-01T15:10:18;30.80;27.00
30520;DHT22;17300;50.374;8.006;2022-09-01T15:12:47;30.80;26.90
30520;DHT22;17300;50.374;8.006;2022-09-01T15:15:14;30.70;26.90
30520;DHT22;17300;50.374;8.006;2022-09-01T15:17:42;30.70;27.00
30520;DHT22;17300;50.374;8.006;2022-09-01T15:20:09;30.60;27.00
30520;DHT22;17300;50.374;8.006;2022-09-01T15:22:53;30.50;27.30
30520;DHT22;17300;50.374;8.006;2022-09-01T15:25:21;30.50;27.10
30520;DHT22;17300;50.374;8.006;2022-09-01T15:27:49;30.30;27.00
30520;DHT22;17300;50.374;8.006;2022-09-01T15:30:15;30.20;27.10
30520;DHT22;17300;50.374;8.006;2022-09-01T15:32:44;30.10;27.10
30520;DHT22;17300;50.374;8.006;2022-09-01T15:35:12;30.00;27.30
30520;DHT22;17300;50.374;8.006;2022-09-01T15:37:39;29.90;27.40
30520;DHT22;17300;50.374;8.006;2022-09-01T15:40:07;29.80;27.40
30520;DHT22;17300;50.374;8.006;2022-09-01T15:42:35;29.80;27.50
30520;DHT22;17300;50.374;8.006;2022-09-01T15:45:07;29.80;27.50
30520;DHT22;17300;50.374;8.006;2022-09-01T15:47:35;29.70;27.80
30520;DHT22;17300;50.374;8.006;2022-09-01T15:50:04;29.70;27.70
30520;DHT22;17300;50.374;8.006;2022-09-01T15:52:31;29.60;27.70
30520;DHT22;17300;50.374;8.006;2022-09-01T15:54:58;29.70;27.60
30520;DHT22;17300;50.374;8.006;2022-09-01T15:57:25;29.70;27.60
30520;DHT22;17300;50.374;8.006;2022-09-01T15:59:52;29.70;27.50
30520;DHT22;17300;50.374;8.006;2022-09-01T16:02:20;29.60;27.20
30520;DHT22;17300;50.374;8.006;2022-09-01T16:04:48;29.60;27.10